Time;durP1;ratioP1;P1;durP2;ratioP2;P2;SDS_P1;SDS_P2;PMS_P1;PMS_P2;Temp;Humidity;BMP_temperature;BMP_pressure;BME280_temperature;BME280_humidity;BME280_pressure;Samples;Min_cycle;Max_cycle;Signal;HPM_P1;HPM_P2
2022/03/25 00:00:26;;;;;;;61.90;24.67;;;;;;;0.07;98.47;101049.73;1723711;83;21045;-61
2022/03/25 00:02:55;;;;;;;58.63;23.00;;;;;;;0.03;98.74;101043.80;1723889;83;21082;-61
2022/03/25 00:05:22;;;;;;;60.10;23.77;;;;;;;-0.03;98.97;101043.75;1723949;83;21573;-61
2022/03/25 00:07:49;;;;;;;51.40;21.57;;;;;;;-0.03;99.72;101045.85;1723905;83;21049;-61
2022/03/25 00:10:19;;;;;;;41.25;16.90;;;;;;;-0.07;99.85;101047.09;1723721;83;21076;-61
2022/03/25 00:12:46;;;;;;;38.70;16.25;;;;;;;-0.29;100.00;101038.46;1723600;83;21029;-61
2022/03/25 00:15:16;;;;;;;42.08;19.02;;;;;;;-0.43;100.00;101044.26;1723609;83;21045;-61
2022/03/25 00:17:44;;;;;;;42.20;18.00;;;;;;;-0.44;100.00;101040.44;1723796;83;21081;-61
2022/03/25 00:20:13;;;;;;;40.92;17.67;;;;;;;-0.49;100.00;101036.58;1723472;83;21170;-63
2022/03/25 00:22:42;;;;;;;43.40;16.32;;;;;;;-0.54;100.00;101037.39;1723801;83;21017;-62
2022/03/25 00:25:10;;;;;;;29.73;13.33;;;;;;;-0.64;100.00;101038.97;1723704;83;21543;-61
2022/03/25 00:27:38;;;;;;;32.00;13.05;;;;;;;-0.62;100.00;101034.36;1723797;83;21053;-62
2022/03/25 00:30:08;;;;;;;28.87;12.80;;;;;;;-0.59;100.00;101028.48;1723786;83;21089;-61
2022/03/25 00:32:38;;;;;;;35.10;14.53;;;;;;;-0.56;100.00;101033.58;1723857;83;21021;-62
2022/03/25 00:35:07;;;;;;;35.48;14.25;;;;;;;-0.53;100.00;101031.48;1723623;83;21029;-61
2022/03/25 00:37:35;;;;;;;31.80;14.90;;;;;;;-0.57;100.00;101036.92;1724092;83;21068;-61
2022/03/25 00:40:04;;;;;;;34.10;14.63;;;;;;;-0.63;100.00;101037.73;1723758;83;21033;-61
2022/03/25 00:42:32;;;;;;;29.50;13.97;;;;;;;-0.71;100.00;101037.20;1723889;83;21107;-61
2022/03/25 00:45:02;;;;;;;26.97;12.87;;;;;;;-0.80;100.00;101036.69;1724093;83;21056;-61
2022/03/25 00:47:29;;;;;;;30.50;13.60;;;;;;;-0.80;100.00;101034.16;1723818;83;21484;-61
2022/03/25 00:49:57;;;;;;;32.90;13.03;;;;;;;-0.83;100.00;101038.78;1723712;83;21086;-61
2022/03/25 00:52:24;;;;;;;30.00;12.87;;;;;;;-0.83;100.00;101033.73;1723670;83;21025;-61
2022/03/25 00:54:55;;;;;;;28.10;12.73;;;;;;;-0.84;100.00;101045.08;1723913;83;21057;-61
2022/03/25 00:57:23;;;;;;;27.43;13.17;;;;;;;-0.87;100.00;101040.00;1723666;83;21070;-61
2022/03/25 00:59:50;;;;;;;40.93;14.73;;;;;;;-0.91;100.00;101034.05;1723917;83;21065;-61
2022/03/25 01:02:18;;;;;;;38.20;14.63;;;;;;;-0.84;100.00;101032.02;1723620;83;21122;-61
2022/03/25 01:04:46;;;;;;;37.97;15.87;;;;;;;-0.85;100.00;101035.81;1723946;83;21518;-61
2022/03/25 01:07:17;;;;;;;38.27;15.27;;;;;;;-0.89;100.00;101037.84;1723956;83;21029;-62
2022/03/25 01:09:46;;;;;;;41.63;17.43;;;;;;;-0.91;100.00;101040.37;1724363;83;21061;-61
2022/03/25 01:12:15;;;;;;;37.37;16.63;;;;;;;-0.94;100.00;101040.32;1723920;83;21545;-62
2022/03/25 01:14:43;;;;;;;41.83;17.67;;;;;;;-1.09;100.00;101043.53;1723990;83;21577;-62
2022/03/25 01:17:10;;;;;;;40.47;16.87;;;;;;;-1.10;100.00;101040.97;1723819;83;21068;-61
2022/03/25 01:19:38;;;;;;;34.40;16.10;;;;;;;-1.09;100.00;101037.20;1723543;83;21101;-61
2022/03/25 01:22:05;;;;;;;37.70;15.93;;;;;;;-1.05;100.00;101044.00;1723711;83;21096;-61
2022/03/25 01:24:32;;;;;;;36.97;15.87;;;;;;;-1.04;100.00;101043.57;1723838;83;21534;-61
2022/03/25 01:27:00;;;;;;;34.13;14.80;;;;;;;-1.06;100.00;101044.81;1723726;83;21093;-61
2022/03/25 01:29:31;;;;;;;35.33;14.90;;;;;;;-1.11;100.00;101040.13;1724018;83;21555;-62
2022/03/25 01:31:59;;;;;;;32.97;13.83;;;;;;;-1.25;100.00;101045.00;1723933;83;21092;-61
2022/03/25 01:34:27;;;;;;;29.03;13.93;;;;;;;-1.36;100.00;101045.27;1723892;83;21294;-62
2022/03/25 01:36:55;;;;;;;29.00;12.73;;;;;;;-1.27;100.00;101049.61;1723672;83;21061;-61
2022/03/25 01:39:22;;;;;;;20.23;9.93;;;;;;;-1.34;100.00;101056.66;1723800;83;21061;-61
2022/03/25 01:41:51;;;;;;;19.73;10.13;;;;;;;-1.44;100.00;101053.15;1724053;83;21061;-61
2022/03/25 01:44:29;;;;;;;25.70;11.90;;;;;;;-1.48;100.00;101061.13;1723642;83;21045;-61
2022/03/25 01:46:59;;;;;;;31.73;13.47;;;;;;;-1.51;100.00;101060.22;1723985;83;21510;-61
2022/03/25 01:49:27;;;;;;;29.57;13.27;;;;;;;-1.56;100.00;101061.42;1723972;83;21151;-61
2022/03/25 01:52:02;;;;;;;21.93;9.70;;;;;;;-1.53;100.00;101065.23;1723796;83;21045;-61
2022/03/25 01:54:32;;;;;;;17.80;8.20;;;;;;;-1.54;100.00;101062.69;1698089;83;21045;-61
2022/03/25 01:57:03;;;;;;;22.53;10.90;;;;;;;-1.56;100.00;101065.21;1723916;83;21532;-61
2022/03/25 01:59:32;;;;;;;30.77;13.70;;;;;;;-1.60;100.00;101064.73;1725079;83;21040;-61
2022/03/25 02:02:04;;;;;;;32.90;15.03;;;;;;;-1.71;100.00;101060.77;1731779;83;21004;-61
2022/03/25 02:04:32;;;;;;;36.80;15.13;;;;;;;-1.85;100.00;101066.86;1731711;83;21458;-61
2022/03/25 02:07:03;;;;;;;28.40;12.87;;;;;;;-1.99;100.00;101064.53;1701152;83;21021;-61
2022/03/25 02:09:31;;;;;;;25.70;11.57;;;;;;;-2.11;100.00;101061.42;1731608;83;21064;-61
2022/03/25 02:12:04;;;;;;;23.47;10.80;;;;;;;-2.19;100.00;101064.61;1731487;83;21044;-61
2022/03/25 02:14:32;;;;;;;24.83;11.37;;;;;;;-2.18;100.00;101065.06;1731696;83;21032;-61
2022/03/25 02:17:01;;;;;;;24.33;12.40;;;;;;;-2.24;100.00;101064.55;1731527;83;21013;-61
2022/03/25 02:19:30;;;;;;;25.30;12.30;;;;;;;-2.13;100.00;101066.84;1731677;83;21092;-61
2022/03/25 02:21:59;;;;;;;30.30;12.33;;;;;;;-2.15;100.00;101067.63;1731483;83;21056;-61
2022/03/25 02:24:28;;;;;;;26.67;11.33;;;;;;;-2.17;100.00;101066.36;1731563;83;21473;-61
2022/03/25 02:26:56;;;;;;;24.80;11.13;;;;;;;-2.18;100.00;101069.69;1731583;83;21568;-61
2022/03/25 02:29:25;;;;;;;23.50;10.83;;;;;;;-2.15;100.00;101073.54;1731619;83;21045;-61
2022/03/25 02:31:52;;;;;;;19.97;9.40;;;;;;;-2.16;100.00;101076.03;1731521;83;21056;-62
2022/03/25 02:34:20;;;;;;;21.73;10.97;;;;;;;-2.07;100.00;101073.64;1731488;83;21049;-61
2022/03/25 02:36:47;;;;;;;23.87;11.27;;;;;;;-2.02;100.00;101069.55;1731672;83;21135;-61
2022/03/25 02:39:16;;;;;;;28.73;11.57;;;;;;;-1.99;100.00;101076.30;1731510;83;21100;-61
2022/03/25 02:41:45;;;;;;;23.60;11.73;;;;;;;-1.96;100.00;101082.25;1731756;83;20981;-61
2022/03/25 02:44:13;;;;;;;32.33;12.43;;;;;;;-1.96;100.00;101081.41;1731678;83;21549;-63
2022/03/25 02:46:42;;;;;;;36.17;11.97;;;;;;;-2.10;100.00;101079.50;1731121;83;21591;-61
2022/03/25 02:49:09;;;;;;;27.03;11.17;;;;;;;-2.19;100.00;101086.05;1731683;83;21088;-61
2022/03/25 02:51:38;;;;;;;24.80;11.50;;;;;;;-2.34;100.00;101087.48;1731409;83;21080;-61
2022/03/25 02:54:05;;;;;;;33.17;12.10;;;;;;;-2.43;100.00;101088.59;1731733;83;20993;-61
2022/03/25 02:56:33;;;;;;;32.87;12.50;;;;;;;-2.40;100.00;101093.67;1731419;83;21135;-61
2022/03/25 02:59:00;;;;;;;27.83;11.53;;;;;;;-2.44;100.00;101094.02;1731420;83;21127;-61
2022/03/25 03:01:28;;;;;;;28.90;11.50;;;;;;;-2.42;100.00;101100.36;1731497;82;21147;-61
2022/03/25 03:03:55;;;;;;;31.63;11.47;;;;;;;-2.44;100.00;101099.48;1731561;83;21212;-61
2022/03/25 03:06:23;;;;;;;26.57;11.07;;;;;;;-2.48;100.00;101098.98;1731573;83;21059;-61
2022/03/25 03:08:50;;;;;;;28.23;11.63;;;;;;;-2.51;100.00;101098.94;1700845;84;21133;-62
2022/03/25 03:11:19;;;;;;;31.00;11.00;;;;;;;-2.56;100.00;101100.52;1719013;83;21069;-61
2022/03/25 03:13:46;;;;;;;27.03;11.47;;;;;;;-2.52;100.00;101106.05;1737100;83;21530;-61
2022/03/25 03:16:14;;;;;;;28.00;11.00;;;;;;;-2.47;100.00;101109.52;1736863;83;21052;-61
2022/03/25 03:18:41;;;;;;;26.57;11.37;;;;;;;-2.42;100.00;101103.72;1737118;83;21072;-62
2022/03/25 03:21:10;;;;;;;26.40;11.77;;;;;;;-2.44;100.00;101106.62;1736943;83;21065;-61
2022/03/25 03:23:37;;;;;;;26.70;11.53;;;;;;;-2.46;100.00;101112.05;1737106;83;21117;-61
2022/03/25 03:26:04;;;;;;;25.80;11.43;;;;;;;-2.51;100.00;101114.07;1737074;83;21013;-61
2022/03/25 03:28:34;;;;;;;22.17;10.67;;;;;;;-2.62;100.00;101114.72;1736902;83;21517;-61
2022/03/25 03:31:01;;;;;;;26.67;10.60;;;;;;;-2.57;100.00;101118.58;1737060;83;21067;-61
2022/03/25 03:33:29;;;;;;;26.67;10.17;;;;;;;-2.53;100.00;101124.11;1737013;83;21053;-62
2022/03/25 03:35:57;;;;;;;23.03;10.10;;;;;;;-2.60;100.00;101120.17;1736897;83;21064;-61
2022/03/25 03:38:24;;;;;;;20.67;9.97;;;;;;;-2.60;100.00;101116.39;1737263;83;21092;-61
2022/03/25 03:40:52;;;;;;;23.17;9.63;;;;;;;-2.65;100.00;101121.36;1737015;83;21549;-61
2022/03/25 03:43:19;;;;;;;26.37;10.03;;;;;;;-2.67;100.00;101121.31;1737059;83;21036;-62
2022/03/25 03:45:47;;;;;;;27.33;10.00;;;;;;;-2.66;100.00;101130.98;1736833;83;21064;-62
2022/03/25 03:48:14;;;;;;;24.30;9.90;;;;;;;-2.62;100.00;101132.73;1737013;83;21013;-62
2022/03/25 03:50:43;;;;;;;23.77;10.57;;;;;;;-2.60;100.00;101132.36;1736827;83;21076;-62
2022/03/25 03:53:11;;;;;;;24.50;10.40;;;;;;;-2.59;100.00;101134.08;1736951;82;21040;-62
2022/03/25 03:55:39;;;;;;;21.37;9.70;;;;;;;-2.55;100.00;101135.84;1737073;83;21057;-61
2022/03/25 03:58:07;;;;;;;20.13;9.20;;;;;;;-2.51;100.00;101135.08;1736839;83;21124;-62
2022/03/25 04:00:34;;;;;;;20.20;9.00;;;;;;;-2.58;100.00;101142.06;1733730;83;21060;-62
2022/03/25 04:03:02;;;;;;;17.97;8.60;;;;;;;-2.61;100.00;101142.02;1726596;83;21494;-62
2022/03/25 04:05:29;;;;;;;21.30;8.50;;;;;;;-2.63;100.00;101143.24;1726523;83;21524;-61
2022/03/25 04:07:57;;;;;;;23.17;9.17;;;;;;;-2.64;100.00;101140.68;1701688;83;21064;-61
2022/03/25 04:10:24;;;;;;;23.30;10.53;;;;;;;-2.62;100.00;101140.30;1726357;83;21049;-61
2022/03/25 04:12:52;;;;;;;29.00;13.10;;;;;;;-2.59;100.00;101142.90;1726378;83;21085;-61
2022/03/25 04:15:20;;;;;;;41.63;16.10;;;;;;;-2.55;100.00;101143.40;1726429;83;21060;-61
2022/03/25 04:17:47;;;;;;;36.97;16.73;;;;;;;-2.53;100.00;101145.95;1726425;83;21099;-61
2022/03/25 04:20:18;;;;;;;35.27;15.07;;;;;;;-2.54;100.00;101148.02;1726292;83;21049;-62
2022/03/25 04:22:47;;;;;;;30.87;13.33;;;;;;;-2.50;100.00;101144.32;1726481;83;21077;-61
2022/03/25 04:25:15;;;;;;;28.97;12.40;;;;;;;-2.44;100.00;101149.91;1726437;83;21513;-61
2022/03/25 04:27:56;;;;;;;38.43;13.83;;;;;;;-2.40;100.00;101150.82;1726383;83;21045;-61
2022/03/25 04:30:30;;;;;;;32.70;13.80;;;;;;;-2.42;100.00;101158.34;1726650;83;21049;-62
2022/03/25 04:32:58;;;;;;;;;;;;;;;-2.30;100.00;101155.22;1729270;83;21134;-62
2022/03/25 04:35:28;;;;;;;39.40;13.33;;;;;;;-2.22;100.00;101158.31;1726706;83;20093;-62
2022/03/25 04:37:57;;;;;;;29.53;13.37;;;;;;;-2.11;100.00;101158.92;1726728;83;21577;-62
2022/03/25 04:40:28;;;;;;;31.77;12.70;;;;;;;-1.98;100.00;101165.05;1726726;83;21493;-62
2022/03/25 04:42:58;;;;;;;34.77;16.13;;;;;;;-1.94;100.00;101161.77;1726736;83;21029;-61
2022/03/25 04:45:27;;;;;;;39.10;17.57;;;;;;;-1.94;100.00;101159.24;1726623;83;21009;-62
2022/03/25 04:47:55;;;;;;;38.47;17.80;;;;;;;-1.85;100.00;101162.75;1726857;83;21017;-61
2022/03/25 04:50:23;;;;;;;37.43;17.70;;;;;;;-1.85;100.00;101162.75;1726601;83;21104;-62
2022/03/25 04:52:52;;;;;;;35.00;16.47;;;;;;;-1.74;100.00;101165.90;1726403;83;21009;-62
2022/03/25 04:55:21;;;;;;;32.20;13.97;;;;;;;-1.66;100.00;101163.93;1726805;83;21029;-61
2022/03/25 04:57:49;;;;;;;30.37;13.63;;;;;;;-1.53;100.00;101162.87;1726708;83;21513;-61
2022/03/25 05:00:38;;;;;;;28.70;12.57;;;;;;;-1.43;100.00;101165.55;1712689;82;21177;-62
2022/03/25 05:03:06;;;;;;;31.00;13.90;;;;;;;-1.30;100.00;101170.40;1712732;84;21580;-62
2022/03/25 05:05:34;;;;;;;41.50;16.50;;;;;;;-1.22;100.00;101169.23;1711957;84;21078;-62
2022/03/25 05:08:05;;;;;;;40.97;15.73;;;;;;;-1.14;100.00;101173.14;1711738;84;21003;-62
2022/03/25 05:10:32;;;;;;;33.77;13.13;;;;;;;-1.11;100.00;101172.77;1713116;84;21089;-62
2022/03/25 05:13:01;;;;;;;31.97;13.30;;;;;;;-0.97;100.00;101170.84;1712967;84;21085;-62
2022/03/25 05:15:30;;;;;;;31.50;13.07;;;;;;;-0.88;100.00;101176.03;1712817;84;21521;-61
2022/03/25 05:17:58;;;;;;;26.30;10.63;;;;;;;-0.77;100.00;101174.91;1712652;84;21077;-62
2022/03/25 05:20:28;;;;;;;21.83;10.63;;;;;;;-0.69;100.00;101178.38;1712766;84;21049;-62
2022/03/25 05:22:55;;;;;;;22.27;10.30;;;;;;;-0.58;100.00;101185.70;1693007;83;21030;-62
2022/03/25 05:25:23;;;;;;;19.20;9.90;;;;;;;-0.50;100.00;101176.95;1692881;85;21086;-62
2022/03/25 05:27:54;;;;;;;27.63;10.77;;;;;;;-0.39;100.00;101184.66;1692830;84;21062;-61
2022/03/25 05:30:25;;;;;;;22.37;10.43;;;;;;;-0.30;100.00;101182.25;1693111;85;21094;-61
2022/03/25 05:32:54;;;;;;;25.07;12.23;;;;;;;-0.19;100.00;101189.52;1693554;85;21035;-61
2022/03/25 05:35:25;;;;;;;26.87;12.53;;;;;;;-0.06;100.00;101194.29;1692272;85;21511;-62
2022/03/25 05:37:54;;;;;;;30.92;12.28;;;;;;;0.09;100.00;101196.16;1694725;84;20985;-62
2022/03/25 05:40:25;;;;;;;25.23;11.65;;;;;;;0.23;100.00;101198.83;1693488;84;21028;-61
2022/03/25 05:42:53;;;;;;;25.23;11.12;;;;;;;0.34;100.00;101204.82;1711179;84;20980;-61
2022/03/25 05:45:22;;;;;;;20.50;11.22;;;;;;;0.50;100.00;101200.74;1711453;84;21638;-62
2022/03/25 05:47:50;;;;;;;19.17;9.33;;;;;;;0.64;100.00;101205.92;1711524;84;20997;-62
2022/03/25 05:50:19;;;;;;;23.30;9.05;;;;;;;0.78;100.00;101205.61;1723884;82;21035;-61
2022/03/25 05:52:46;;;;;;;23.65;9.70;;;;;;;1.02;100.00;101204.09;1740980;81;21554;-62
2022/03/25 05:55:16;;;;;;;19.00;9.95;;;;;;;1.20;100.00;101205.47;1740925;82;21066;-63
2022/03/25 05:57:46;;;;;;;16.23;9.35;;;;;;;1.37;100.00;101207.66;1740846;82;21478;-61
2022/03/25 06:00:15;;;;;;;15.80;8.25;;;;;;;1.57;100.00;101210.72;1735515;82;21039;-62
2022/03/25 06:02:45;;;;;;;15.75;8.35;;;;;;;1.80;100.00;101212.06;1708327;82;21079;-61
2022/03/25 06:05:13;;;;;;;18.05;8.23;;;;;;;2.13;100.00;101215.53;1736324;82;20991;-62
2022/03/25 06:07:44;;;;;;;17.98;8.00;;;;;;;2.38;100.00;101214.73;1733026;82;21055;-62
2022/03/25 06:10:15;;;;;;;15.68;8.10;;;;;;;2.56;100.00;101218.16;1732322;82;21023;-62
2022/03/25 06:12:44;;;;;;;15.35;8.23;;;;;;;2.77;100.00;101216.02;1735124;82;21066;-61
2022/03/25 06:15:12;;;;;;;14.58;7.92;;;;;;;2.98;100.00;101216.02;1733886;82;21000;-61
2022/03/25 06:17:47;;;;;;;15.15;8.30;;;;;;;3.23;100.00;101214.69;1735855;82;21503;-62
2022/03/25 06:20:23;;;;;;;17.85;7.85;;;;;;;3.49;100.00;101220.11;1709372;83;21012;-62
2022/03/25 06:22:50;;;;;;;14.35;8.03;;;;;;;3.65;100.00;101224.32;1675470;86;21032;-61
2022/03/25 06:25:20;;;;;;;14.95;8.33;;;;;;;3.78;99.89;101225.10;1677453;85;21078;-61
2022/03/25 06:27:53;;;;;;;13.03;8.05;;;;;;;3.91;98.41;101222.90;1709295;83;21053;-61
2022/03/25 06:30:23;;;;;;;14.05;8.40;;;;;;;4.12;96.09;101224.50;1675270;84;21052;-61
2022/03/25 06:32:52;;;;;;;16.35;8.15;;;;;;;4.33;93.69;101232.43;1696094;84;20997;-61
2022/03/25 06:35:20;;;;;;;17.02;7.90;;;;;;;4.45;92.74;101234.05;1737188;82;21058;-61
2022/03/25 06:37:51;;;;;;;16.60;8.45;;;;;;;4.64;91.92;101236.03;1735524;82;21088;-62
2022/03/25 06:40:20;;;;;;;15.28;8.35;;;;;;;4.86;90.57;101232.03;1735676;82;21581;-61
2022/03/25 06:42:50;;;;;;;15.32;8.10;;;;;;;4.99;89.43;101239.57;1736961;82;21026;-62
2022/03/25 06:45:18;;;;;;;20.30;9.58;;;;;;;5.29;87.32;101238.00;1734205;82;21007;-62
2022/03/25 06:47:47;;;;;;;21.55;9.45;;;;;;;5.66;83.77;101243.95;1731052;82;21468;-62
2022/03/25 06:50:17;;;;;;;23.05;8.55;;;;;;;5.88;80.90;101244.55;1733444;82;21134;-62
2022/03/25 06:52:47;;;;;;;18.05;7.92;;;;;;;6.13;79.24;101249.78;1733842;82;21069;-62
2022/03/25 06:55:16;;;;;;;20.17;8.38;;;;;;;6.20;77.45;101253.09;1732871;82;21059;-62
2022/03/25 06:57:47;;;;;;;18.17;7.15;;;;;;;6.33;76.62;101258.45;1732181;81;21101;-62
2022/03/25 07:00:15;;;;;;;20.45;7.70;;;;;;;6.44;75.44;101251.90;1719825;82;21067;-61
2022/03/25 07:02:43;;;;;;;20.85;7.85;;;;;;;6.50;75.17;101259.92;1711622;84;21544;-62
2022/03/25 07:05:13;;;;;;;18.57;8.30;;;;;;;6.65;74.15;101263.53;1711472;84;21122;-61
2022/03/25 07:07:43;;;;;;;23.32;7.90;;;;;;;6.75;73.39;101264.20;1722774;83;21047;-62
2022/03/25 07:10:13;;;;;;;19.25;7.87;;;;;;;6.88;72.87;101271.27;1723792;83;21098;-62
2022/03/25 07:12:44;;;;;;;11.83;6.17;;;;;;;7.00;72.42;101273.18;1719811;83;21059;-63
2022/03/25 07:15:13;;;;;;;19.37;7.30;;;;;;;7.13;72.05;101272.97;1717097;83;21496;-62
2022/03/25 07:17:43;;;;;;;17.50;6.85;;;;;;;7.12;70.11;101271.30;1718656;83;21564;-62
2022/03/25 07:20:13;;;;;;;17.60;6.83;;;;;;;7.12;69.21;101275.14;1717859;83;21012;-62
2022/03/25 07:22:48;;;;;;;15.70;6.95;;;;;;;7.25;69.68;101271.91;1718770;83;21336;-61
2022/03/25 07:25:17;;;;;;;;;;;;;;;7.38;69.25;101279.77;1722038;83;21524;-62
2022/03/25 07:27:48;;;;;;;13.13;5.85;;;;;;;7.41;68.11;101276.72;1718989;83;20406;-62
2022/03/25 07:30:17;;;;;;;19.48;4.60;;;;;;;7.47;68.26;101278.33;1719865;83;21030;-62
2022/03/25 07:32:47;;;;;;;12.88;5.30;;;;;;;7.62;66.93;101272.05;1717145;83;20972;-62
2022/03/25 07:35:16;;;;;;;13.55;5.00;;;;;;;7.74;66.71;101273.09;1719499;83;21060;-62
2022/03/25 07:37:44;;;;;;;14.63;5.80;;;;;;;7.88;66.75;101271.98;1716644;83;21036;-63
2022/03/25 07:40:15;;;;;;;11.12;4.90;;;;;;;7.87;65.96;101266.43;1721297;83;21484;-63
2022/03/25 07:42:45;;;;;;;16.05;5.83;;;;;;;8.06;66.42;101270.31;1716783;83;21533;-61
2022/03/25 07:45:16;;;;;;;14.90;5.80;;;;;;;8.28;65.45;101266.00;1719538;83;21023;-61
2022/03/25 07:47:48;;;;;;;10.40;5.75;;;;;;;8.35;64.27;101270.10;1718354;83;21047;-61
2022/03/25 07:50:19;;;;;;;13.55;5.70;;;;;;;8.30;64.46;101275.79;1718070;83;21028;-61
2022/03/25 07:52:50;;;;;;;14.00;5.85;;;;;;;8.32;64.44;101269.73;1718366;83;21056;-62
2022/03/25 07:55:20;;;;;;;14.33;5.87;;;;;;;8.34;63.94;101263.30;1718590;83;21019;-61
2022/03/25 07:57:49;;;;;;;9.90;5.25;;;;;;;8.36;63.73;101265.39;1718973;83;21020;-62
2022/03/25 08:00:17;;;;;;;13.25;5.85;;;;;;;8.41;63.42;101261.88;1726581;81;21034;-61
2022/03/25 08:02:51;;;;;;;10.95;5.47;;;;;;;8.49;63.07;101266.81;1732819;82;21074;-61
2022/03/25 08:05:19;;;;;;;13.78;5.78;;;;;;;8.56;63.07;101264.52;1737863;82;21022;-61
2022/03/25 08:07:54;;;;;;;16.97;6.08;;;;;;;8.72;62.68;101260.28;1708550;82;21479;-61
2022/03/25 08:10:30;;;;;;;13.62;5.45;;;;;;;8.93;61.86;101261.05;1701677;83;21031;-63
2022/03/25 08:13:02;;;;;;;14.33;5.62;;;;;;;9.02;60.90;101263.81;1705131;83;22281;-61
2022/03/25 08:15:36;;;;;;;16.02;6.15;;;;;;;9.01;60.55;101265.55;1672249;85;21034;-61
2022/03/25 08:18:05;;;;;;;17.00;6.70;;;;;;;9.05;60.53;101259.91;1674152;84;21132;-62
2022/03/25 08:20:41;;;;;;;15.63;6.83;;;;;;;9.12;60.91;101259.30;1736525;82;21003;-62
2022/03/25 08:29:00;;;;;;;12.43;5.37;;;;;;;9.42;59.20;101261.48;1733449;82;21006;-62
2022/03/25 08:31:28;;;;;;;15.63;6.10;;;;;;;9.44;59.06;101257.16;1735375;82;21078;-62
2022/03/25 08:33:57;;;;;;;11.63;5.53;;;;;;;9.58;59.41;101264.04;1735359;82;21035;-62
2022/03/25 08:36:25;;;;;;;13.75;5.22;;;;;;;9.66;58.73;101261.27;1734309;82;21027;-62
2022/03/25 08:38:52;;;;;;;17.37;5.83;;;;;;;9.59;57.83;101267.02;1735073;82;20994;-61
2022/03/25 08:41:20;;;;;;;16.70;5.40;;;;;;;9.63;58.31;101267.34;1732401;82;21003;-63
2022/03/25 08:43:49;;;;;;;19.57;3.67;;;;;;;9.80;58.40;101258.30;1732243;82;21526;-62
2022/03/25 08:46:19;;;;;;;15.40;5.12;;;;;;;9.82;55.92;101262.50;1733618;82;21043;-62
2022/03/25 08:48:47;;;;;;;12.98;4.78;;;;;;;9.70;57.01;101260.73;1734251;82;21078;-62
2022/03/25 08:51:14;;;;;;;14.93;4.35;;;;;;;9.78;56.35;101251.08;1734469;82;22249;-62
2022/03/25 08:53:43;;;;;;;11.45;4.00;;;;;;;9.77;54.59;101254.09;1733654;82;22087;-62
2022/03/25 08:56:11;;;;;;;10.80;3.52;;;;;;;9.87;55.23;101244.36;1735383;82;21078;-62
2022/03/25 08:58:38;;;;;;;14.28;3.98;;;;;;;10.08;56.02;101245.92;1732184;82;21007;-62
2022/03/25 09:01:06;;;;;;;11.95;4.30;;;;;;;10.15;55.00;101249.53;1734441;81;21968;-61
2022/03/25 09:03:33;;;;;;;15.25;4.35;;;;;;;10.29;54.26;101257.28;1717781;83;21556;-62
2022/03/25 09:06:02;;;;;;;13.15;4.25;;;;;;;10.23;53.80;101257.85;1718304;83;21036;-61
2022/03/25 09:08:30;;;;;;;14.70;4.40;;;;;;;9.99;53.05;101249.59;1716634;83;21043;-62
2022/03/25 09:10:57;;;;;;;12.40;4.28;;;;;;;9.98;53.47;101246.19;1719246;83;21027;-62
2022/03/25 09:13:25;;;;;;;13.62;4.62;;;;;;;10.12;54.35;101243.66;1718402;83;21043;-62
2022/03/25 09:15:53;;;;;;;18.35;4.45;;;;;;;10.31;54.86;101242.67;1720293;83;21007;-62
2022/03/25 09:18:22;;;;;;;14.07;4.28;;;;;;;10.19;51.90;101253.69;1717577;83;21082;-63
2022/03/25 09:20:50;;;;;;;17.42;4.33;;;;;;;10.10;52.23;101247.55;1718345;83;21011;-62
2022/03/25 09:23:17;;;;;;;13.62;4.35;;;;;;;10.15;53.18;101247.41;1720822;83;21024;-61
2022/03/25 09:25:46;;;;;;;16.87;4.65;;;;;;;10.46;53.17;101250.34;1717958;83;21039;-62
2022/03/25 09:28:13;;;;;;;13.20;4.28;;;;;;;10.53;51.74;101249.27;1724120;82;21484;-62
2022/03/25 09:30:42;;;;;;;15.28;4.17;;;;;;;10.57;49.88;101251.69;1735365;82;21016;-62
2022/03/25 09:33:10;;;;;;;16.05;4.20;;;;;;;10.50;49.13;101248.06;1715533;83;21078;-61
2022/03/25 09:35:39;;;;;;;12.07;4.28;;;;;;;10.38;49.64;101250.58;1717887;83;21055;-60
2022/03/25 09:38:07;;;;;;;14.40;4.47;;;;;;;10.51;50.43;101246.73;1717136;82;21000;-62
2022/03/25 09:40:37;;;;;;;15.30;4.35;;;;;;;10.61;51.17;101245.55;1718395;82;21542;-61
2022/03/25 09:43:05;;;;;;;17.82;4.42;;;;;;;10.68;52.34;101247.92;1717104;83;21087;-61
2022/03/25 09:45:33;;;;;;;14.68;4.55;;;;;;;10.77;52.60;101245.89;1719483;83;21055;-61
2022/03/25 09:48:02;;;;;;;17.37;4.20;;;;;;;10.87;51.13;101257.16;1717119;83;20990;-61
2022/03/25 09:50:31;;;;;;;17.48;4.00;;;;;;;10.88;50.72;101259.70;1718027;83;21083;-61
2022/03/25 09:52:59;;;;;;;20.97;5.40;;;;;;;10.93;50.60;101253.96;1715649;83;21528;-61
2022/03/25 09:55:31;;;;;;;16.77;4.55;;;;;;;10.99;48.78;101246.02;1719380;83;21519;-61
2022/03/25 09:58:00;;;;;;;13.53;4.70;;;;;;;10.83;47.60;101247.44;1715694;83;21066;-61
2022/03/25 10:00:27;;;;;;;14.18;4.75;;;;;;;10.95;48.68;101250.88;1717111;83;21099;-61
2022/03/25 10:02:54;;;;;;;14.78;5.20;;;;;;;11.13;48.64;101253.70;1714273;83;21048;-61
2022/03/25 10:05:22;;;;;;;16.48;5.08;;;;;;;11.22;47.85;101250.83;1716911;83;21051;-61
2022/03/25 10:07:57;;;;;;;13.40;4.83;;;;;;;11.20;47.49;101259.06;1714618;83;21314;-61
2022/03/25 10:10:29;;;;;;;14.47;4.60;;;;;;;11.11;47.21;101260.65;1717995;83;21508;-62
2022/03/25 10:13:07;;;;;;;12.43;4.83;;;;;;;11.09;47.38;101260.73;1715154;83;21012;-61
2022/03/25 10:15:39;;;;;;;16.87;4.90;;;;;;;11.17;47.24;101251.42;1717207;83;21067;-61
2022/03/25 10:18:09;;;;;;;14.15;4.60;;;;;;;11.45;48.04;101247.42;1717223;83;21430;-61
2022/03/25 10:20:41;;;;;;;14.80;4.53;;;;;;;11.53;46.43;101245.86;1714718;83;21020;-61
2022/03/25 10:23:17;;;;;;;14.33;4.47;;;;;;;11.59;46.78;101245.64;1712458;83;20984;-61
2022/03/25 10:25:53;;;;;;;12.90;5.12;;;;;;;11.64;46.60;101238.59;1719529;83;21011;-62
2022/03/25 10:28:36;;;;;;;14.35;5.00;;;;;;;11.52;45.64;101238.59;1714357;83;21449;-62
2022/03/25 10:31:14;;;;;;;17.48;5.47;;;;;;;11.45;45.11;101237.56;1716329;83;21032;-61
2022/03/25 10:33:54;;;;;;;14.05;5.22;;;;;;;11.49;45.18;101239.97;1715928;83;21051;-62
2022/03/25 10:36:25;;;;;;;19.70;6.05;;;;;;;11.62;45.93;101237.35;1714425;82;21090;-61
2022/03/25 10:38:54;;;;;;;13.83;5.80;;;;;;;11.61;44.23;101233.53;1713980;82;21039;-61
2022/03/25 10:41:27;;;;;;;19.80;5.60;;;;;;;11.53;44.67;101232.52;1721542;83;21535;-61
2022/03/25 10:44:03;;;;;;;14.55;5.00;;;;;;;11.57;43.94;101240.53;1718352;83;20988;-61
2022/03/25 10:46:34;;;;;;;13.60;4.90;;;;;;;11.52;44.99;101231.31;1711621;83;21005;-61
2022/03/25 10:49:07;;;;;;;11.03;4.80;;;;;;;11.68;45.59;101231.56;1717728;83;21043;-61
2022/03/25 10:51:39;;;;;;;18.57;5.37;;;;;;;11.58;44.95;101225.47;1697578;83;21115;-61
2022/03/25 10:54:09;;;;;;;19.17;5.08;;;;;;;11.69;45.20;101225.06;1721180;83;21020;-61
2022/03/25 10:56:56;;;;;;;14.45;5.45;;;;;;;11.69;44.17;101213.45;1720466;83;21035;-62
2022/03/25 10:59:31;;;;;;;11.45;5.62;;;;;;;11.93;44.35;101219.92;1720522;83;21020;-61
2022/03/25 11:02:01;;;;;;;17.20;5.70;;;;;;;11.75;43.19;101218.39;1722743;82;21040;-61
2022/03/25 11:04:29;;;;;;;18.45;5.80;;;;;;;11.92;42.73;101222.09;1735500;83;21019;-61
2022/03/25 11:06:58;;;;;;;12.85;5.72;;;;;;;11.79;42.46;101217.83;1735194;83;21053;-61
2022/03/25 11:09:27;;;;;;;13.78;5.30;;;;;;;11.72;41.98;101214.65;1735135;83;21047;-61
2022/03/25 11:12:11;;;;;;;17.65;5.60;;;;;;;11.89;42.68;101211.91;1760117;81;21122;-61
2022/03/25 11:14:41;;;;;;;13.83;5.37;;;;;;;11.96;42.44;101217.20;1765057;81;21093;-61
2022/03/25 11:17:11;;;;;;;16.95;6.10;;;;;;;12.10;42.71;101208.48;1765203;81;21035;-62
2022/03/25 11:19:43;;;;;;;11.63;6.00;;;;;;;12.13;42.38;101210.13;1737166;81;22086;-61
2022/03/25 11:22:12;;;;;;;16.37;6.33;;;;;;;12.15;43.05;101213.48;1765090;81;21057;-61
2022/03/25 11:24:44;;;;;;;14.98;6.12;;;;;;;12.16;42.83;101207.40;1765426;81;21471;-61
2022/03/25 11:27:23;;;;;;;14.43;6.40;;;;;;;12.24;42.14;101210.52;1765172;81;21680;-61